createdAt,value
2023-04-09T00:00:08.644Z,81.99
2023-04-09T00:01:08.377Z,82.29
2023-04-09T00:02:08.920Z,82.29
2023-04-09T00:03:08.430Z,82.60
2023-04-09T00:04:08.503Z,82.70
2023-04-09T00:05:08.325Z,82.91
2023-04-09T00:06:08.295Z,82.70
2023-04-09T00:07:08.306Z,82.29
2023-04-09T00:08:08.965Z,82.50
2023-04-09T00:09:08.282Z,82.19
2023-04-09T00:10:09.045Z,82.40
2023-04-09T00:11:09.549Z,81.88
2023-04-09T00:12:08.207Z,82.19
2023-04-09T00:13:08.202Z,82.29
2023-04-09T00:14:08.196Z,82.29
2023-04-09T00:15:11.026Z,82.40
2023-04-09T00:16:08.225Z,82.50
2023-04-09T00:17:08.170Z,81.99
2023-04-09T00:18:08.135Z,81.99
2023-04-09T00:19:08.161Z,82.19
2023-04-09T00:20:08.108Z,82.81
2023-04-09T00:21:08.118Z,82.50
2023-04-09T00:22:08.067Z,82.40
2023-04-09T00:23:08.106Z,82.50
2023-04-09T00:24:08.076Z,82.60
2023-04-09T00:25:08.134Z,82.91
2023-04-09T00:26:08.047Z,83.01
2023-04-09T00:27:08.130Z,83.01
2023-04-09T00:28:08.013Z,83.12
2023-04-09T00:29:08.018Z,83.53
2023-04-09T00:30:07.985Z,83.32
2023-04-09T00:31:07.995Z,83.36
2023-04-09T00:32:08.014Z,83.32
2023-04-09T00:33:07.965Z,83.01
2023-04-09T00:34:07.955Z,83.53
2023-04-09T00:35:07.951Z,83.63
2023-04-09T00:36:07.970Z,83.77
2023-04-09T00:37:07.909Z,83.87
2023-04-09T00:38:08.606Z,83.67
2023-04-09T00:39:07.898Z,83.98
2023-04-09T00:40:07.863Z,83.77
2023-04-09T00:41:07.870Z,83.77
2023-04-09T00:42:07.823Z,84.28
2023-04-09T00:43:07.870Z,84.49
2023-04-09T00:44:07.850Z,84.28
2023-04-09T00:45:07.803Z,84.59
2023-04-09T00:46:07.838Z,84.59
2023-04-09T00:47:07.778Z,84.69
2023-04-09T00:48:07.744Z,84.69
2023-04-09T00:49:07.746Z,85.14
2023-04-09T00:50:07.722Z,85.35
2023-04-09T00:51:07.744Z,85.55
2023-04-09T00:52:07.725Z,85.76
2023-04-09T00:53:07.701Z,85.76
2023-04-09T00:54:07.674Z,86.07
2023-04-09T00:55:07.687Z,86.17
2023-04-09T00:56:07.665Z,86.17
2023-04-09T00:57:07.672Z,86.27
2023-04-09T00:58:07.623Z,86.38
2023-04-09T00:59:07.623Z,86.38
2023-04-09T01:00:07.612Z,86.62
2023-04-09T01:01:08.572Z,86.52
2023-04-09T01:02:13.726Z,86.72
2023-04-09T01:03:07.650Z,86.72
2023-04-09T01:04:07.587Z,86.62
2023-04-09T01:05:07.546Z,86.21
2023-04-09T01:06:07.507Z,86.17
2023-04-09T01:07:07.558Z,86.07
2023-04-09T01:08:07.500Z,86.07
2023-04-09T01:09:07.509Z,85.97
2023-04-09T01:10:07.460Z,85.86
2023-04-09T01:11:07.552Z,86.07
2023-04-09T01:12:07.427Z,86.07
2023-04-09T01:13:08.411Z,86.21
2023-04-09T01:14:07.407Z,86.52
2023-04-09T01:15:07.446Z,86.42
2023-04-09T01:16:07.381Z,86.32
2023-04-09T01:17:07.378Z,86.42
2023-04-09T01:18:08.071Z,86.42
2023-04-09T01:19:07.367Z,86.52
2023-04-09T01:20:07.347Z,86.52
2023-04-09T01:21:07.345Z,86.42
2023-04-09T01:22:07.306Z,86.32
2023-04-09T01:23:07.319Z,86.32
2023-04-09T01:24:07.285Z,86.21
2023-04-09T01:25:07.309Z,86.32
2023-04-09T01:26:07.322Z,86.21
2023-04-09T01:27:07.246Z,86.21
2023-04-09T01:28:07.226Z,86.52
2023-04-09T01:29:07.247Z,86.42
2023-04-09T01:30:07.187Z,86.42
2023-04-09T01:31:07.255Z,86.32
2023-04-09T01:32:07.179Z,86.42
2023-04-09T01:33:07.170Z,86.52
2023-04-09T01:34:07.181Z,86.83
2023-04-09T01:35:07.147Z,87.04
2023-04-09T01:36:07.193Z,87.34
2023-04-09T01:37:07.135Z,87.45
2023-04-09T01:38:07.091Z,87.45
2023-04-09T01:39:07.120Z,87.65
2023-04-09T01:40:07.067Z,87.96
2023-04-09T01:41:07.055Z,87.85
2023-04-09T01:42:07.057Z,87.96
2023-04-09T01:43:08.067Z,87.85
2023-04-09T01:44:07.012Z,87.65
2023-04-09T01:45:07.033Z,87.55
2023-04-09T01:46:06.993Z,87.65
2023-04-09T01:47:07.039Z,87.85
2023-04-09T01:48:06.963Z,87.90
2023-04-09T01:49:06.999Z,88.00
2023-04-09T01:50:06.941Z,88.10
2023-04-09T01:51:06.969Z,88.31
2023-04-09T01:52:07.613Z,88.10
2023-04-09T01:53:06.907Z,88.20
2023-04-09T01:54:06.922Z,88.31
2023-04-09T01:55:06.906Z,88.31
2023-04-09T01:56:06.851Z,88.20
2023-04-09T01:57:06.903Z,88.41
2023-04-09T01:58:06.851Z,88.41
2023-04-09T01:59:06.853Z,88.51
2023-04-09T02:00:06.819Z,88.51
2023-04-09T02:01:06.833Z,88.41
2023-04-09T02:02:06.795Z,88.31
2023-04-09T02:03:06.825Z,88.31
2023-04-09T02:04:06.933Z,88.10
2023-04-09T02:05:06.763Z,88.10
2023-04-09T02:06:06.722Z,88.31
2023-04-09T02:07:06.718Z,88.31
2023-04-09T02:08:06.802Z,88.31
2023-04-09T02:09:06.731Z,88.00
2023-04-09T02:10:06.672Z,87.90
2023-04-09T02:11:06.709Z,87.90
2023-04-09T02:12:06.716Z,87.79
2023-04-09T02:13:06.657Z,87.69
2023-04-09T02:14:06.633Z,87.79
2023-04-09T02:15:07.563Z,87.79
2023-04-09T02:16:06.655Z,87.69
2023-04-09T02:17:06.618Z,87.79
2023-04-09T02:18:06.584Z,88.00
2023-04-09T02:19:06.610Z,87.90
2023-04-09T02:20:06.564Z,88.00
2023-04-09T02:21:06.576Z,88.00
2023-04-09T02:22:06.538Z,88.10
2023-04-09T02:23:06.540Z,88.20
2023-04-09T02:24:06.524Z,88.31
2023-04-09T02:25:06.563Z,88.41
2023-04-09T02:26:06.473Z,88.20
2023-04-09T02:27:06.486Z,88.10
2023-04-09T02:28:06.449Z,88.00
2023-04-09T02:29:06.466Z,88.00
2023-04-09T02:30:06.440Z,88.10
2023-04-09T02:31:06.444Z,88.10
2023-04-09T02:32:06.387Z,88.31
2023-04-09T02:33:06.407Z,88.31
2023-04-09T02:34:06.366Z,88.51
2023-04-09T02:35:06.407Z,88.41
2023-04-09T02:36:06.357Z,88.51
2023-04-09T02:37:06.351Z,88.41
2023-04-09T02:38:06.319Z,88.31
2023-04-09T02:39:06.316Z,88.41
2023-04-09T02:40:06.302Z,88.35
2023-04-09T02:41:06.292Z,88.24
2023-04-09T02:42:06.258Z,88.35
2023-04-09T02:43:07.127Z,88.45
2023-04-09T02:44:06.240Z,88.66
2023-04-09T02:45:06.542Z,88.86
2023-04-09T02:46:06.237Z,88.96
2023-04-09T02:47:06.215Z,89.11
2023-04-09T02:48:06.166Z,89.22
2023-04-09T02:49:06.188Z,89.42
2023-04-09T02:50:06.188Z,89.42
2023-04-09T02:51:06.178Z,89.52
2023-04-09T02:52:06.156Z,89.83
2023-04-09T02:53:06.148Z,89.83
2023-04-09T02:54:06.141Z,89.87
2023-04-09T02:55:06.090Z,89.77
2023-04-09T02:56:06.614Z,89.87
2023-04-09T02:57:06.104Z,89.77
2023-04-09T02:58:06.079Z,89.77
2023-04-09T02:59:06.067Z,89.87
2023-04-09T03:00:06.623Z,89.97
2023-04-09T03:01:06.041Z,90.08
2023-04-09T03:02:06.114Z,90.08
2023-04-09T03:03:06.663Z,89.97
2023-04-09T03:04:06.108Z,90.08
2023-04-09T03:05:05.973Z,90.08
2023-04-09T03:06:05.989Z,90.28
2023-04-09T03:07:06.612Z,90.28
2023-04-09T03:08:05.981Z,90.18
2023-04-09T03:09:05.931Z,90.28
2023-04-09T03:10:05.914Z,90.28
2023-04-09T03:11:06.873Z,90.28
2023-04-09T03:12:05.912Z,90.28
2023-04-09T03:13:05.868Z,90.28
2023-04-09T03:14:05.869Z,90.28
2023-04-09T03:15:05.862Z,90.18
2023-04-09T03:16:05.941Z,90.18
2023-04-09T03:17:05.805Z,90.28
2023-04-09T03:18:05.889Z,90.28
2023-04-09T03:19:05.812Z,90.33
2023-04-09T03:20:05.793Z,90.28
2023-04-09T03:21:05.757Z,90.18
2023-04-09T03:22:05.770Z,90.08
2023-04-09T03:23:05.740Z,90.18
2023-04-09T03:24:05.763Z,90.18
2023-04-09T03:25:05.714Z,90.08
2023-04-09T03:26:05.806Z,89.97
2023-04-09T03:27:06.372Z,90.01
2023-04-09T03:28:05.714Z,90.01
2023-04-09T03:29:05.675Z,90.12
2023-04-09T03:30:05.715Z,90.12
2023-04-09T03:31:05.702Z,90.12
2023-04-09T03:32:05.639Z,90.12
2023-04-09T03:33:05.724Z,90.22
2023-04-09T03:34:05.631Z,90.12
2023-04-09T03:35:05.594Z,90.01
2023-04-09T03:36:05.666Z,90.12
2023-04-09T03:37:05.542Z,90.12
2023-04-09T03:38:05.590Z,90.01
2023-04-09T03:39:05.539Z,90.01
2023-04-09T03:40:05.554Z,90.33
2023-04-09T03:41:05.511Z,90.73
2023-04-09T03:42:05.528Z,90.84
2023-04-09T03:43:06.008Z,90.73
2023-04-09T03:44:05.487Z,90.43
2023-04-09T03:45:05.447Z,90.12
2023-04-09T03:46:05.525Z,90.01
2023-04-09T03:47:05.410Z,89.91
2023-04-09T03:48:05.431Z,89.91
2023-04-09T03:49:05.405Z,89.91
2023-04-09T03:50:05.417Z,89.50
2023-04-09T03:51:05.392Z,89.40
2023-04-09T03:52:05.366Z,89.40
2023-04-09T03:53:06.063Z,89.29
2023-04-09T03:54:05.356Z,89.09
2023-04-09T03:55:05.313Z,88.99
2023-04-09T03:56:05.335Z,88.99
2023-04-09T03:57:05.336Z,89.09
2023-04-09T03:58:06.117Z,88.99
2023-04-09T03:59:05.285Z,88.99
2023-04-09T04:00:05.272Z,89.09
2023-04-09T04:01:05.221Z,89.19
2023-04-09T04:02:05.368Z,89.19
2023-04-09T04:03:05.673Z,89.19
2023-04-09T04:04:05.323Z,89.09
2023-04-09T04:05:06.003Z,89.19
2023-04-09T04:06:05.236Z,89.29
2023-04-09T04:07:05.152Z,89.50
2023-04-09T04:08:05.194Z,89.61
2023-04-09T04:09:05.118Z,89.75
2023-04-09T04:10:05.138Z,89.85
2023-04-09T04:11:05.190Z,89.85
2023-04-09T04:12:05.139Z,89.95
2023-04-09T04:13:06.021Z,90.16
2023-04-09T04:14:05.863Z,90.26
2023-04-09T04:15:05.046Z,90.26
2023-04-09T04:16:05.879Z,90.37
2023-04-09T04:17:05.052Z,90.37
2023-04-09T04:18:05.051Z,90.47
2023-04-09T04:19:05.068Z,90.61
2023-04-09T04:20:05.003Z,90.72
2023-04-09T04:21:04.977Z,90.72
2023-04-09T04:22:04.979Z,90.72
2023-04-09T04:23:04.968Z,90.51
2023-04-09T04:24:04.977Z,90.26
2023-04-09T04:25:04.922Z,90.16
2023-04-09T04:26:04.963Z,89.95
2023-04-09T04:27:04.922Z,89.75
2023-04-09T04:28:04.922Z,89.65
2023-04-09T04:29:04.913Z,89.75
2023-04-09T04:30:04.933Z,89.85
2023-04-09T04:31:04.849Z,89.85
2023-04-09T04:32:04.940Z,90.00
2023-04-09T04:33:04.846Z,90.20
2023-04-09T04:34:04.861Z,90.41
2023-04-09T04:35:04.823Z,90.41
2023-04-09T04:36:04.805Z,90.51
2023-04-09T04:37:04.752Z,90.31
2023-04-09T04:38:04.805Z,90.41
2023-04-09T04:39:04.763Z,90.20
2023-04-09T04:40:04.764Z,90.31
2023-04-09T04:41:04.718Z,90.31
2023-04-09T04:42:04.730Z,90.20
2023-04-09T04:43:04.688Z,90.31
2023-04-09T04:44:04.741Z,90.41
2023-04-09T04:45:04.679Z,90.41
2023-04-09T04:46:04.761Z,90.45
2023-04-09T04:47:04.636Z,90.55
2023-04-09T04:48:04.683Z,90.76
2023-04-09T04:49:04.615Z,90.76
2023-04-09T04:50:04.652Z,90.76
2023-04-09T04:51:04.629Z,90.66
2023-04-09T04:52:04.617Z,90.86
2023-04-09T04:53:04.554Z,90.80
2023-04-09T04:54:04.598Z,90.91
2023-04-09T04:55:04.543Z,91.01
2023-04-09T04:56:04.588Z,90.91
2023-04-09T04:57:04.502Z,90.91
2023-04-09T04:58:04.517Z,90.91
2023-04-09T04:59:04.508Z,91.22
2023-04-09T05:00:04.513Z,91.32
2023-04-09T05:01:05.499Z,91.11
2023-04-09T05:02:04.609Z,90.76
2023-04-09T05:03:04.595Z,90.25
2023-04-09T05:04:04.528Z,89.94
2023-04-09T05:05:04.436Z,89.73
2023-04-09T05:06:04.436Z,89.73
2023-04-09T05:07:04.399Z,89.62
2023-04-09T05:08:04.384Z,89.42
2023-04-09T05:09:04.349Z,89.42
2023-04-09T05:10:04.361Z,89.52
2023-04-09T05:11:04.330Z,89.62
2023-04-09T05:12:04.365Z,89.73
2023-04-09T05:13:04.301Z,89.94
2023-04-09T05:14:04.301Z,89.83
2023-04-09T05:15:04.296Z,89.83
2023-04-09T05:16:04.285Z,89.94
2023-04-09T05:17:04.313Z,90.19
2023-04-09T05:18:04.280Z,90.28
2023-04-09T05:19:04.225Z,90.39
2023-04-09T05:20:04.260Z,90.49
2023-04-09T05:21:04.195Z,90.59
2023-04-09T05:22:04.255Z,90.70
2023-04-09T05:23:04.167Z,90.70
2023-04-09T05:24:04.182Z,90.59
2023-04-09T05:25:04.197Z,90.49
2023-04-09T05:26:04.157Z,90.39
2023-04-09T05:27:04.147Z,90.39
2023-04-09T05:28:04.134Z,90.39
2023-04-09T05:29:04.121Z,90.49
2023-04-09T05:30:04.116Z,90.49
2023-04-09T05:31:04.177Z,90.59
2023-04-09T05:32:04.080Z,90.70
2023-04-09T05:33:04.069Z,90.80
2023-04-09T05:34:04.047Z,90.80
2023-04-09T05:35:04.015Z,90.80
2023-04-09T05:36:04.070Z,90.80
2023-04-09T05:37:03.984Z,91.01
2023-04-09T05:38:03.989Z,91.11
2023-04-09T05:39:03.958Z,91.11
2023-04-09T05:40:03.994Z,91.22
2023-04-09T05:41:03.962Z,91.22
2023-04-09T05:42:03.961Z,91.32
2023-04-09T05:43:03.952Z,91.32
2023-04-09T05:44:03.913Z,91.32
2023-04-09T05:45:03.882Z,91.42
2023-04-09T05:46:03.964Z,91.48
2023-04-09T05:47:03.876Z,91.48
2023-04-09T05:48:03.925Z,91.58
2023-04-09T05:49:03.870Z,91.58
2023-04-09T05:50:03.854Z,91.69
2023-04-09T05:51:03.815Z,91.69
2023-04-09T05:52:03.860Z,91.48
2023-04-09T05:53:03.780Z,91.38
2023-04-09T05:54:03.792Z,91.17
2023-04-09T05:55:03.774Z,91.17
2023-04-09T05:56:03.767Z,90.82
2023-04-09T05:57:03.773Z,90.61
2023-04-09T05:58:03.737Z,90.61
2023-04-09T05:59:03.715Z,90.61
2023-04-09T06:00:03.735Z,90.72
2023-04-09T06:01:03.678Z,90.61
2023-04-09T06:02:03.749Z,90.51
2023-04-09T06:03:03.777Z,90.41
2023-04-09T06:04:04.222Z,90.41
2023-04-09T06:05:03.626Z,90.47
2023-04-09T06:06:03.703Z,90.16
2023-04-09T06:07:03.623Z,90.06
2023-04-09T06:08:03.648Z,90.47
2023-04-09T06:09:03.597Z,89.95
2023-04-09T06:10:03.587Z,89.44
2023-04-09T06:11:03.551Z,89.75
2023-04-09T06:12:03.594Z,89.65
2023-04-09T06:13:03.563Z,89.34
2023-04-09T06:14:03.562Z,88.99
2023-04-09T06:15:03.499Z,88.89
2023-04-09T06:16:03.547Z,88.89
2023-04-09T06:17:03.574Z,89.09
2023-04-09T06:18:03.576Z,89.09
2023-04-09T06:19:03.468Z,89.09
2023-04-09T06:20:04.009Z,88.78
2023-04-09T06:21:03.415Z,88.89
2023-04-09T06:22:03.479Z,89.09
2023-04-09T06:23:03.412Z,88.57
2023-04-09T06:24:03.425Z,87.96
2023-04-09T06:25:03.352Z,88.31
2023-04-09T06:26:03.414Z,89.03
2023-04-09T06:27:03.364Z,89.44
2023-04-09T06:28:03.368Z,89.54
2023-04-09T06:29:03.402Z,89.65
2023-04-09T06:30:03.331Z,89.95
2023-04-09T06:31:03.336Z,89.54
2023-04-09T06:32:03.310Z,89.54
2023-04-09T06:33:03.299Z,89.75
2023-04-09T06:34:03.273Z,90.00
2023-04-09T06:35:03.257Z,90.20
2023-04-09T06:36:03.316Z,90.41
2023-04-09T06:37:03.215Z,90.61
2023-04-09T06:38:03.226Z,90.82
2023-04-09T06:39:03.238Z,91.07
2023-04-09T06:40:03.292Z,91.17
2023-04-09T06:41:03.220Z,91.17
2023-04-09T06:42:03.174Z,91.07
2023-04-09T06:43:03.177Z,91.07
2023-04-09T06:44:03.147Z,90.76
2023-04-09T06:45:03.163Z,90.66
2023-04-09T06:46:03.161Z,90.97
2023-04-09T06:47:03.067Z,90.97
2023-04-09T06:48:03.157Z,90.97
2023-04-09T06:49:03.117Z,90.86
2023-04-09T06:50:03.085Z,90.97
2023-04-09T06:51:03.048Z,90.82
2023-04-09T06:52:03.107Z,90.92
2023-04-09T06:53:03.024Z,90.92
2023-04-09T06:54:03.118Z,90.78
2023-04-09T06:55:03.017Z,90.43
2023-04-09T06:56:02.986Z,89.29
2023-04-09T06:57:02.940Z,89.46
2023-04-09T06:58:02.998Z,88.64
2023-04-09T06:59:02.955Z,87.71
2023-04-09T07:00:02.966Z,87.36
2023-04-09T07:01:02.917Z,87.57
2023-04-09T07:02:02.957Z,86.95
2023-04-09T07:03:03.107Z,86.85
2023-04-09T07:04:02.968Z,87.26
2023-04-09T07:05:02.913Z,88.24
2023-04-09T07:06:02.876Z,87.52
2023-04-09T07:07:02.907Z,86.60
2023-04-09T07:08:02.798Z,86.60
2023-04-09T07:09:02.827Z,87.32
2023-04-09T07:10:02.822Z,87.69
2023-04-09T07:11:02.811Z,87.07
2023-04-09T07:12:02.782Z,86.56
2023-04-09T07:13:02.779Z,87.65
2023-04-09T07:14:02.750Z,86.52
2023-04-09T07:15:02.780Z,85.33
2023-04-09T07:16:02.766Z,85.53
2023-04-09T07:17:02.731Z,85.33
2023-04-09T07:18:02.762Z,85.49
2023-04-09T07:19:02.786Z,85.18
2023-04-09T07:20:02.677Z,86.11
2023-04-09T07:21:03.385Z,85.39
2023-04-09T07:22:02.629Z,86.00
2023-04-09T07:23:02.689Z,86.27
2023-04-09T07:24:02.633Z,85.66
2023-04-09T07:25:02.644Z,85.82
2023-04-09T07:26:02.570Z,84.39
2023-04-09T07:27:02.596Z,84.49
2023-04-09T07:28:02.558Z,84.80
2023-04-09T07:29:02.626Z,84.39
2023-04-09T07:30:02.567Z,83.56
2023-04-09T07:31:02.566Z,84.04
2023-04-09T07:32:02.496Z,83.32
2023-04-09T07:33:02.592Z,82.46
2023-04-09T07:34:02.492Z,82.56
2023-04-09T07:35:02.507Z,82.77
2023-04-09T07:36:02.557Z,83.07
2023-04-09T07:37:02.453Z,80.92
2023-04-09T07:38:02.490Z,81.43
2023-04-09T07:39:02.570Z,82.26
2023-04-09T07:40:02.389Z,82.22
2023-04-09T07:41:02.526Z,81.29
2023-04-09T07:42:02.377Z,81.29
2023-04-09T07:43:02.401Z,80.07
2023-04-09T07:44:02.348Z,79.72
2023-04-09T07:45:02.357Z,80.54
2023-04-09T07:46:02.355Z,80.51
2023-04-09T07:47:02.474Z,79.79
2023-04-09T07:48:02.347Z,78.72
2023-04-09T07:49:02.341Z,77.91
2023-04-09T07:50:02.603Z,78.08
2023-04-09T07:51:02.333Z,77.91
2023-04-09T07:52:02.260Z,77.76
2023-04-09T07:53:02.260Z,76.64
2023-04-09T07:54:02.249Z,76.95
2023-04-09T07:55:02.239Z,77.56
2023-04-09T07:56:02.178Z,76.20
2023-04-09T07:57:02.207Z,75.85
2023-04-09T07:58:02.157Z,75.55
2023-04-09T07:59:02.222Z,75.10
2023-04-09T08:00:02.128Z,75.10
2023-04-09T08:01:02.181Z,74.32
2023-04-09T08:02:02.209Z,74.66
2023-04-09T08:03:02.363Z,74.66
2023-04-09T08:04:02.264Z,75.27
2023-04-09T08:05:02.260Z,76.23
2023-04-09T08:06:02.063Z,76.20
2023-04-09T08:07:02.085Z,75.68
2023-04-09T08:08:02.064Z,76.20
2023-04-09T08:09:02.058Z,76.71
2023-04-09T08:10:02.021Z,75.68
2023-04-09T08:11:02.019Z,75.89
2023-04-09T08:12:01.988Z,74.87
2023-04-09T08:13:01.982Z,76.50
2023-04-09T08:14:01.951Z,75.79
2023-04-09T08:15:01.959Z,76.78
2023-04-09T08:16:01.976Z,75.62
2023-04-09T08:17:01.933Z,74.39
2023-04-09T08:18:01.947Z,74.80
2023-04-09T08:19:01.978Z,75.62
2023-04-09T08:20:01.849Z,77.22
2023-04-09T08:21:01.915Z,76.19
2023-04-09T08:22:01.856Z,76.70
2023-04-09T08:23:01.855Z,75.48
2023-04-09T08:24:01.822Z,75.17
2023-04-09T08:25:02.818Z,74.15
2023-04-09T08:26:01.836Z,74.46
2023-04-09T08:27:01.819Z,76.09
2023-04-09T08:28:01.778Z,74.05
2023-04-09T08:29:01.801Z,76.40
2023-04-09T08:30:01.731Z,75.89
2023-04-09T08:31:01.745Z,74.56
2023-04-09T08:32:01.821Z,74.83
2023-04-09T08:33:01.768Z,73.03
2023-04-09T08:34:01.699Z,75.48
2023-04-09T08:35:01.685Z,73.47
2023-04-09T08:36:03.368Z,75.31
2023-04-09T08:37:01.684Z,74.05
2023-04-09T08:38:01.643Z,75.37
2023-04-09T08:39:01.648Z,76.06
2023-04-09T08:40:01.634Z,74.42
2023-04-09T08:41:01.673Z,74.97
2023-04-09T08:42:01.574Z,75.27
2023-04-09T08:43:01.621Z,75.44
2023-04-09T08:44:01.570Z,74.52
2023-04-09T08:45:01.598Z,73.67
2023-04-09T08:46:01.592Z,74.18
2023-04-09T08:47:01.562Z,72.21
2023-04-09T08:48:01.690Z,71.91
2023-04-09T08:49:01.533Z,73.13
2023-04-09T08:50:01.506Z,72.52
2023-04-09T08:51:01.499Z,70.40
2023-04-09T08:52:01.466Z,70.10
2023-04-09T08:53:01.461Z,70.72
2023-04-09T08:54:03.925Z,71.91
2023-04-09T08:55:01.482Z,70.57
2023-04-09T08:56:01.450Z,70.98
2023-04-09T08:57:01.424Z,70.68
2023-04-09T08:58:02.037Z,70.07
2023-04-09T08:59:01.396Z,70.17
2023-04-09T09:00:01.347Z,68.40
2023-04-09T09:01:01.407Z,67.41
2023-04-09T09:02:01.558Z,68.81
2023-04-09T09:03:01.526Z,71.15
2023-04-09T09:04:01.380Z,70.54
2023-04-09T09:05:01.302Z,68.71
2023-04-09T09:06:01.254Z,69.12
2023-04-09T09:07:01.341Z,68.71
2023-04-09T09:08:01.260Z,68.61
2023-04-09T09:09:01.249Z,68.40
2023-04-09T09:10:01.215Z,67.99
2023-04-09T09:11:01.216Z,67.38
2023-04-09T09:12:01.177Z,68.57
2023-04-09T09:13:01.209Z,68.57
2023-04-09T09:14:01.146Z,70.92
2023-04-09T09:15:01.215Z,68.13
2023-04-09T09:16:01.132Z,67.22
2023-04-09T09:17:01.195Z,69.76
2023-04-09T09:18:01.157Z,66.71
2023-04-09T09:19:01.181Z,68.54
2023-04-09T09:20:01.078Z,65.62
2023-04-09T09:21:01.073Z,64.29
2023-04-09T09:22:01.053Z,67.05
2023-04-09T09:23:01.051Z,68.98
2023-04-09T09:24:01.075Z,65.14
2023-04-09T09:25:01.030Z,66.60
2023-04-09T09:26:00.988Z,68.16
2023-04-09T09:27:01.003Z,70.00
2023-04-09T09:28:00.990Z,69.35
2023-04-09T09:29:01.024Z,70.17
2023-04-09T09:30:00.945Z,71.39
2023-04-09T09:31:01.007Z,69.53
2023-04-09T09:32:00.916Z,66.47
2023-04-09T09:33:01.107Z,62.73
2023-04-09T09:34:00.912Z,66.30
2023-04-09T09:35:00.926Z,66.33
2023-04-09T09:36:00.903Z,64.87
2023-04-09T09:37:00.868Z,64.56
2023-04-09T09:38:00.840Z,64.25
2023-04-09T09:39:00.860Z,65.28
2023-04-09T09:40:00.838Z,68.95
2023-04-09T09:41:00.829Z,67.96
2023-04-09T09:42:00.791Z,66.12
2023-04-09T09:43:00.824Z,66.91
2023-04-09T09:44:00.780Z,66.19
2023-04-09T09:45:00.801Z,67.72
2023-04-09T09:46:00.734Z,66.39
2023-04-09T09:47:00.755Z,66.91
2023-04-09T09:48:00.782Z,65.14
2023-04-09T09:49:00.766Z,63.41
2023-04-09T09:50:00.714Z,63.48
2023-04-09T09:51:00.751Z,65.08
2023-04-09T09:52:00.668Z,61.95
2023-04-09T09:53:00.697Z,61.78
2023-04-09T09:54:00.638Z,64.02
2023-04-09T09:55:00.650Z,63.51
2023-04-09T09:56:00.606Z,61.57
2023-04-09T09:57:00.626Z,62.49
2023-04-09T09:58:00.600Z,62.59
2023-04-09T09:59:00.599Z,62.82
2023-04-09T10:00:00.651Z,62.32
2023-04-09T10:01:01.490Z,61.91
2023-04-09T10:02:00.678Z,60.99
2023-04-09T10:03:00.720Z,60.78
2023-04-09T10:04:00.528Z,61.78
2023-04-09T10:05:00.521Z,61.88
2023-04-09T10:06:00.485Z,62.90
2023-04-09T10:07:00.542Z,61.98
2023-04-09T10:08:00.461Z,62.26
2023-04-09T10:09:00.470Z,58.56
2023-04-09T10:10:00.428Z,57.65
2023-04-09T10:11:00.468Z,59.66
2023-04-09T10:12:00.431Z,57.62
2023-04-09T10:13:00.439Z,55.73
2023-04-09T10:14:00.375Z,58.17
2023-04-09T10:15:00.434Z,56.34
2023-04-09T10:16:00.400Z,59.32
2023-04-09T10:17:00.362Z,58.30
2023-04-09T10:18:00.371Z,59.35
2023-04-09T10:19:00.346Z,59.66
2023-04-09T10:20:00.327Z,56.50
2023-04-09T10:21:00.299Z,57.75
2023-04-09T10:22:00.253Z,56.42
2023-04-09T10:23:00.289Z,57.75
2023-04-09T10:24:00.265Z,58.87
2023-04-09T10:25:00.229Z,59.17
2023-04-09T10:26:00.200Z,57.54
2023-04-09T10:27:00.225Z,58.33
2023-04-09T10:28:00.237Z,57.82
2023-04-09T10:29:00.232Z,58.23
2023-04-09T10:30:00.208Z,57.92
2023-04-09T10:31:00.258Z,60.27
2023-04-09T10:32:00.172Z,59.14
2023-04-09T10:33:00.206Z,59.45
2023-04-09T10:34:00.099Z,58.23
2023-04-09T10:35:00.170Z,60.16
2023-04-09T10:36:00.162Z,59.28
2023-04-09T10:37:00.101Z,61.21
2023-04-09T10:38:00.056Z,59.89
2023-04-09T10:39:00.075Z,62.02
2023-04-09T10:40:00.037Z,59.61
2023-04-09T10:41:00.047Z,59.81
2023-04-09T10:42:00.007Z,58.28
2023-04-09T10:43:00.015Z,61.14
2023-04-09T10:44:00.004Z,59.28
2023-04-09T10:44:59.980Z,57.95
2023-04-09T10:46:00.078Z,59.17
2023-04-09T10:46:59.996Z,60.70
2023-04-09T10:47:59.968Z,60.30
2023-04-09T10:48:59.963Z,60.68
2023-04-09T10:49:59.878Z,57.92
2023-04-09T10:50:59.921Z,57.82
2023-04-09T10:51:59.871Z,61.97
2023-04-09T10:52:59.889Z,58.40
2023-04-09T10:53:59.839Z,56.65
2023-04-09T10:54:59.879Z,55.33
2023-04-09T10:55:59.810Z,54.82
2023-04-09T10:56:59.845Z,55.33
2023-04-09T10:57:59.808Z,55.43
2023-04-09T10:58:59.820Z,55.51
2023-04-09T10:59:59.756Z,57.74
2023-04-09T11:00:59.792Z,56.62
2023-04-09T11:01:59.836Z,58.28
2023-04-09T11:03:00.074Z,54.61
2023-04-09T11:03:59.714Z,54.92
2023-04-09T11:04:59.813Z,55.22
2023-04-09T11:05:59.698Z,56.55
2023-04-09T11:06:59.698Z,56.14
2023-04-09T11:07:59.666Z,55.22
2023-04-09T11:08:59.706Z,53.70
2023-04-09T11:09:59.656Z,53.90
2023-04-09T11:10:59.743Z,52.48
2023-04-09T11:11:59.594Z,53.90
2023-04-09T11:12:59.627Z,54.79
2023-04-09T11:13:59.597Z,54.59
2023-04-09T11:14:59.595Z,52.56
2023-04-09T11:15:59.618Z,51.84
2023-04-09T11:16:59.554Z,55.71
2023-04-09T11:17:59.575Z,55.10
2023-04-09T11:18:59.540Z,56.09
2023-04-09T11:19:59.532Z,52.43
2023-04-09T11:20:59.512Z,52.63
2023-04-09T11:21:59.507Z,54.26
2023-04-09T11:22:59.459Z,55.07
2023-04-09T11:23:59.516Z,54.66
2023-04-09T11:24:59.431Z,54.66
2023-04-09T11:25:59.475Z,55.88
2023-04-09T11:26:59.418Z,56.73
2023-04-09T11:27:59.413Z,55.91
2023-04-09T11:28:59.382Z,54.90
2023-04-09T11:29:59.374Z,53.17
2023-04-09T11:30:59.340Z,52.76
2023-04-09T11:32:00.040Z,54.28
2023-04-09T11:32:59.407Z,54.28
2023-04-09T11:33:59.389Z,57.03
2023-04-09T11:34:59.313Z,55.40
2023-04-09T11:35:59.400Z,54.92
2023-04-09T11:36:59.865Z,57.56
2023-04-09T11:37:59.290Z,56.47
2023-04-09T11:38:59.253Z,54.51
2023-04-09T11:39:59.248Z,58.89
2023-04-09T11:40:59.216Z,58.38
2023-04-09T11:41:59.258Z,56.95
2023-04-09T11:42:59.186Z,56.45
2023-04-09T11:43:59.216Z,57.36
2023-04-09T11:44:59.197Z,57.87
2023-04-09T11:45:59.184Z,57.56
2023-04-09T11:46:59.306Z,58.48
2023-04-09T11:47:59.248Z,56.82
2023-04-09T11:48:59.114Z,56.73
2023-04-09T11:49:59.112Z,55.60
2023-04-09T11:50:59.088Z,55.51
2023-04-09T11:51:59.112Z,54.69
2023-04-09T11:52:59.083Z,58.86
2023-04-09T11:53:59.069Z,57.46
2023-04-09T11:54:59.030Z,56.47
2023-04-09T11:55:59.068Z,58.71
2023-04-09T11:56:59.007Z,54.85
2023-04-09T11:57:59.016Z,60.03
2023-04-09T11:58:59.010Z,58.07
2023-04-09T11:59:59.068Z,58.17
2023-04-09T12:00:59.064Z,59.30
2023-04-09T12:01:59.092Z,57.06
2023-04-09T12:02:59.210Z,59.70
2023-04-09T12:03:59.076Z,55.40
2023-04-09T12:04:58.943Z,56.21
2023-04-09T12:05:58.906Z,57.67
2023-04-09T12:06:58.954Z,57.77
2023-04-09T12:07:58.886Z,59.50
2023-04-09T12:08:58.877Z,58.15
2023-04-09T12:09:58.877Z,55.30
2023-04-09T12:10:58.825Z,56.21
2023-04-09T12:11:58.856Z,55.60
2023-04-09T12:12:58.817Z,58.42
2023-04-09T12:13:58.823Z,56.49
2023-04-09T12:14:58.769Z,56.49
2023-04-09T12:15:59.185Z,54.77
2023-04-09T12:16:58.807Z,55.78
2023-04-09T12:17:58.780Z,57.89
2023-04-09T12:18:58.724Z,54.44
2023-04-09T12:19:58.729Z,52.51
2023-04-09T12:20:58.708Z,55.25
2023-04-09T12:21:58.704Z,51.54
2023-04-09T12:22:58.658Z,54.41
2023-04-09T12:23:58.748Z,54.41
2023-04-09T12:24:58.644Z,52.78
2023-04-09T12:25:58.653Z,56.95
2023-04-09T12:26:58.623Z,57.16
2023-04-09T12:27:58.639Z,55.94
2023-04-09T12:28:58.594Z,56.45
2023-04-09T12:29:58.616Z,53.19
2023-04-09T12:30:58.588Z,55.91
2023-04-09T12:31:58.640Z,55.40
2023-04-09T12:32:58.620Z,54.16
2023-04-09T12:33:58.630Z,51.51
2023-04-09T12:34:58.500Z,54.57
2023-04-09T12:35:58.655Z,55.88
2023-04-09T12:36:58.508Z,56.60
2023-04-09T12:37:58.496Z,57.89
2023-04-09T12:38:58.460Z,53.75
2023-04-09T12:39:58.499Z,55.88
2023-04-09T12:40:58.426Z,57.10
2023-04-09T12:41:58.444Z,58.02
2023-04-09T12:42:58.423Z,54.36
2023-04-09T12:43:58.422Z,52.73
2023-04-09T12:44:58.416Z,54.97
2023-04-09T12:45:58.470Z,56.82
2023-04-09T12:46:58.409Z,54.28
2023-04-09T12:47:58.404Z,54.00
2023-04-09T12:48:58.318Z,54.72
2023-04-09T12:49:58.356Z,55.83
2023-04-09T12:50:58.329Z,55.63
2023-04-09T12:51:58.314Z,54.39